馬祖南竿航空站 - ATIS

METAR RCFG 200300Z 36014G24KT 320V030 CAVOK 27/14 Q1009 NOSIG RMK 02012KT/R21 34010G21KT/NJL A2982(C)=

站台狀態:Online
最後更新:2019-09-20 11:30:02